Terminal Aerodrome Forecast
Issued by NWS

Home | Current Version | Previous Version | Text Only | Print | Product List | Glossary On
Versions: 1 2 3 4 5 6 7 8 9 10 11 12 13 14 15 16 17 18 19 20 21 22 23 24 25 26 27 28 29 30 31 32 33 34 35 36
000
FTUS45 KSLC 310127 AAA
TAF36U
TAF AMD
K36U 310127Z 3101/3124 01007KT 6SM -RA SCT015 BKN035
      TEMPO 3101/3103 4SM RA BKN015
     FM310600 02010KT P6SM VCSH SCT025 BKN050=

USA.gov is the U.S. government's official web portal to all federal, state and local government web resources and services.